Terminal Aerodrome Forecast
Issued by NWS

Current Version | Previous Version | Graphics & Text | Print | Product List | Glossary On
Versions: 1 2 3 4 5 6 7 8 9 10 11 12 13 14 15 16 17 18
425
FTUS41 KILN 151133
TAFLUK
TAF
KLUK 151133Z 1512/1612 VRB02KT 5SM BR BKN200
      TEMPO 1512/1513 2SM BR
     FM151300 18003KT P6SM OVC250
     FM151500 18005KT P6SM OVC080
     FM151800 21011G20KT 3SM -SHRA OVC035
     FM152100 21011G20KT 5SM -SHRA BR OVC008
     FM160000 23007KT P6SM OVC006
     FM160300 27007KT P6SM OVC015
     FM160900 29009KT P6SM SCT015=

USA.gov is the U.S. government's official web portal to all federal, state and local government web resources and services.